createdAt,value
2022-12-11T00:00:15.974Z,98490.34
2022-12-11T00:03:02.161Z,98462.84
2022-12-11T00:05:48.775Z,98461.13
2022-12-11T00:08:35.148Z,98498.28
2022-12-11T00:11:23.043Z,98491.22
2022-12-11T00:14:09.625Z,98494.97
2022-12-11T00:16:57.038Z,98479.28
2022-12-11T00:19:43.530Z,98471.69
2022-12-11T00:22:30.693Z,98471.13
2022-12-11T00:25:17.226Z,98496.59
2022-12-11T00:28:03.423Z,98478.56
2022-12-11T00:30:50.004Z,98470.53
2022-12-11T00:33:36.648Z,98468.44
2022-12-11T00:36:25.359Z,98493.78
2022-12-11T00:39:11.594Z,98457.59
2022-12-11T00:41:58.308Z,98496.63
2022-12-11T00:45:10.767Z,98503.72
2022-12-11T00:47:57.688Z,98465.31
2022-12-11T00:50:44.232Z,98491.69
2022-12-11T00:53:30.439Z,98493.47
2022-12-11T00:56:19.554Z,98460.19
2022-12-11T00:59:05.928Z,98458.06
2022-12-11T01:01:52.135Z,98453.13
2022-12-11T01:04:38.326Z,98475.22
2022-12-11T01:07:25.210Z,98486.75
2022-12-11T01:10:24.051Z,98499.13
2022-12-11T01:13:10.581Z,98511.25
2022-12-11T01:15:57.083Z,98508.09
2022-12-11T01:18:43.707Z,98521.31
2022-12-11T01:21:30.497Z,98520.75
2022-12-11T01:24:16.909Z,98494.84
2022-12-11T01:27:03.963Z,98526.47
2022-12-11T01:29:50.256Z,98442.31
2022-12-11T01:32:36.452Z,98527.19
2022-12-11T01:35:22.702Z,98508.75
2022-12-11T01:38:10.167Z,98534.84
2022-12-11T01:40:56.675Z,98501.72
2022-12-11T01:44:15.855Z,98534.47
2022-12-11T01:47:02.173Z,98480.59
2022-12-11T01:49:48.548Z,98509.06
2022-12-11T01:52:34.835Z,98483.06
2022-12-11T01:55:21.699Z,98531.06
2022-12-11T01:58:08.619Z,98547.75
2022-12-11T02:00:56.452Z,98508.06
2022-12-11T02:03:43.317Z,98524.59
2022-12-11T02:06:49.245Z,98549.56
2022-12-11T02:09:37.685Z,98544.53
2022-12-11T02:12:55.793Z,98547.31
2022-12-11T02:16:23.157Z,98548.81
2022-12-11T02:19:29.461Z,98517.84
2022-12-11T02:22:58.600Z,98545.22
2022-12-11T02:26:19.970Z,98502.53
2022-12-11T02:29:12.990Z,98526.19
2022-12-11T02:32:23.661Z,98537.28
2022-12-11T02:35:20.463Z,98544.59
2022-12-11T02:38:18.576Z,98538.13
2022-12-11T02:41:07.376Z,98494.91
2022-12-11T02:43:56.538Z,98521.47
2022-12-11T02:46:44.750Z,98533.97
2022-12-11T02:49:33.872Z,98517.59
2022-12-11T02:52:25.181Z,98504.44
2022-12-11T02:55:14.680Z,98506.34
2022-12-11T02:58:09.533Z,98498.31
2022-12-11T03:00:56.151Z,98506.28
2022-12-11T03:03:42.813Z,98508.09
2022-12-11T03:06:37.486Z,98490.38
2022-12-11T03:09:24.097Z,98517.00
2022-12-11T03:12:13.864Z,98528.31
2022-12-11T03:15:03.054Z,98509.44
2022-12-11T03:18:15.034Z,98526.81
2022-12-11T03:21:18.553Z,98524.50
2022-12-11T03:24:30.026Z,98484.03
2022-12-11T03:27:30.557Z,98532.03
2022-12-11T03:30:21.517Z,98475.75
2022-12-11T03:33:16.631Z,98493.72
2022-12-11T03:36:11.052Z,98507.44
2022-12-11T03:39:13.330Z,98493.72
2022-12-11T03:42:04.907Z,98506.16
2022-12-11T03:44:54.529Z,98456.97
2022-12-11T03:47:43.215Z,98506.41
2022-12-11T03:50:32.099Z,98508.19
2022-12-11T03:53:20.350Z,98506.88
2022-12-11T03:56:10.264Z,98492.09
2022-12-11T03:58:56.496Z,98482.06
2022-12-11T04:01:43.018Z,98489.09
2022-12-11T04:04:29.490Z,98515.03
2022-12-11T04:07:15.964Z,98504.09
2022-12-11T04:10:03.120Z,98501.56
2022-12-11T04:12:49.670Z,98481.75
2022-12-11T04:15:37.129Z,98471.25
2022-12-11T04:18:42.353Z,98480.41
2022-12-11T04:21:47.278Z,98481.75
2022-12-11T04:24:34.051Z,98436.03
2022-12-11T04:27:38.873Z,98486.56
2022-12-11T04:30:32.369Z,98490.94
2022-12-11T04:33:20.108Z,98490.84
2022-12-11T04:36:06.889Z,98447.13
2022-12-11T04:38:53.253Z,98478.56
2022-12-11T04:41:41.529Z,98490.97
2022-12-11T04:44:27.809Z,98451.00
2022-12-11T04:47:14.430Z,98480.47
2022-12-11T04:50:00.577Z,98453.63
2022-12-11T04:52:47.078Z,98485.81
2022-12-11T04:55:33.182Z,98499.47
2022-12-11T04:58:19.583Z,98498.41
2022-12-11T05:01:11.068Z,98471.75
2022-12-11T05:03:59.475Z,98482.31
2022-12-11T05:06:45.905Z,98489.63
2022-12-11T05:09:32.125Z,98484.16
2022-12-11T05:12:18.282Z,98500.19
2022-12-11T05:15:05.197Z,98498.88
2022-12-11T05:17:51.575Z,98505.28
2022-12-11T05:20:37.821Z,98477.97
2022-12-11T05:23:25.223Z,98504.03
2022-12-11T05:26:19.751Z,98445.94
2022-12-11T05:29:06.049Z,98491.31
2022-12-11T05:31:52.362Z,98457.88
2022-12-11T05:34:38.633Z,98477.91
2022-12-11T05:37:24.802Z,98466.00
2022-12-11T05:40:15.211Z,98462.09
2022-12-11T05:43:01.469Z,98452.84
2022-12-11T05:45:47.705Z,98403.19
2022-12-11T05:48:34.796Z,98488.75
2022-12-11T05:51:21.198Z,98466.00
2022-12-11T05:54:07.502Z,98445.44
2022-12-11T05:56:53.805Z,98445.13
2022-12-11T05:59:40.360Z,98432.31
2022-12-11T06:02:26.831Z,98451.59
2022-12-11T06:05:13.399Z,98442.09
2022-12-11T06:08:00.051Z,98444.56
2022-12-11T06:10:47.851Z,98447.41
2022-12-11T06:13:34.610Z,98429.25
2022-12-11T06:16:21.847Z,98479.06
2022-12-11T06:19:14.873Z,98443.00
2022-12-11T06:22:01.179Z,98456.50
2022-12-11T06:24:48.012Z,98477.19
2022-12-11T06:27:34.481Z,98461.13
2022-12-11T06:30:21.450Z,98437.84
2022-12-11T06:33:07.715Z,98460.59
2022-12-11T06:35:54.277Z,98461.53
2022-12-11T06:38:42.556Z,98474.63
2022-12-11T06:41:29.036Z,98461.78
2022-12-11T06:44:15.221Z,98429.84
2022-12-11T06:47:01.834Z,98422.66
2022-12-11T06:49:48.280Z,98460.22
2022-12-11T06:52:34.667Z,98404.78
2022-12-11T06:55:20.831Z,98473.91
2022-12-11T06:58:07.865Z,98429.00
2022-12-11T07:00:54.493Z,98460.41
2022-12-11T07:03:40.774Z,98481.22
2022-12-11T07:06:28.434Z,98480.22
2022-12-11T07:09:14.676Z,98483.06
2022-12-11T07:12:01.355Z,98478.41
2022-12-11T07:14:47.635Z,98487.97
2022-12-11T07:17:34.146Z,98471.25
2022-12-11T07:20:20.447Z,98497.41
2022-12-11T07:23:06.725Z,98484.50
2022-12-11T07:25:53.704Z,98493.50
2022-12-11T07:28:42.457Z,98489.16
2022-12-11T07:31:29.901Z,98479.78
2022-12-11T07:34:16.620Z,98490.63
2022-12-11T07:37:03.187Z,98500.34
2022-12-11T07:39:49.647Z,98487.81
2022-12-11T07:42:38.375Z,98471.88
2022-12-11T07:45:27.970Z,98488.81
2022-12-11T07:48:14.442Z,98499.91
2022-12-11T07:51:20.658Z,98500.09
2022-12-11T07:54:16.655Z,98489.66
2022-12-11T07:57:03.216Z,98494.00
2022-12-11T07:59:49.429Z,98500.28
2022-12-11T08:02:37.626Z,98505.25
2022-12-11T08:05:24.619Z,98505.06
2022-12-11T08:08:11.147Z,98499.41
2022-12-11T08:11:01.493Z,98494.41
2022-12-11T08:13:48.691Z,98495.41
2022-12-11T08:16:35.031Z,98470.19
2022-12-11T08:19:21.458Z,98494.97
2022-12-11T08:22:08.188Z,98486.38
2022-12-11T08:24:54.558Z,98488.38
2022-12-11T08:27:40.864Z,98502.91
2022-12-11T08:30:27.343Z,98489.56
2022-12-11T08:33:14.019Z,98475.41
2022-12-11T08:36:09.026Z,98495.97
2022-12-11T08:38:56.486Z,98492.75
2022-12-11T08:41:42.739Z,98496.06
2022-12-11T08:44:29.664Z,98498.56
2022-12-11T08:47:15.960Z,98506.22
2022-12-11T08:50:02.725Z,98502.91
2022-12-11T08:52:49.505Z,98495.53
2022-12-11T08:55:38.926Z,98497.75
2022-12-11T08:58:25.471Z,98495.84
2022-12-11T09:01:17.939Z,98493.19
2022-12-11T09:04:04.652Z,98488.94
2022-12-11T09:06:51.100Z,98478.16
2022-12-11T09:09:37.710Z,98456.97
2022-12-11T09:12:24.064Z,98475.16
2022-12-11T09:15:10.970Z,98475.50
2022-12-11T09:17:57.773Z,98479.31
2022-12-11T09:20:44.226Z,98470.13
2022-12-11T09:23:30.802Z,98477.59
2022-12-11T09:26:20.095Z,98479.63
2022-12-11T09:29:07.754Z,98473.59
2022-12-11T09:31:54.090Z,98480.34
2022-12-11T09:34:40.421Z,98479.13
2022-12-11T09:37:26.958Z,98479.00
2022-12-11T09:40:13.865Z,98474.41
2022-12-11T09:43:12.544Z,98479.78
2022-12-11T09:46:03.092Z,98457.00
2022-12-11T09:48:50.451Z,98472.94
2022-12-11T09:51:42.885Z,98477.47
2022-12-11T09:54:29.603Z,98464.69
2022-12-11T09:57:34.021Z,98474.63
2022-12-11T10:00:23.199Z,98479.22
2022-12-11T10:03:47.219Z,98456.09
2022-12-11T10:06:42.021Z,98473.94
2022-12-11T10:09:37.904Z,98472.69
2022-12-11T10:12:55.124Z,98462.22
2022-12-11T10:15:50.850Z,98452.72
2022-12-11T10:18:37.989Z,98451.44
2022-12-11T10:21:26.402Z,98453.78
2022-12-11T10:27:51.389Z,98443.13
2022-12-11T10:30:39.387Z,98428.09
2022-12-11T10:33:46.449Z,98442.72
2022-12-11T10:36:36.934Z,98422.69
2022-12-11T10:39:23.634Z,98427.66
2022-12-11T10:42:19.255Z,98426.75
2022-12-11T10:45:06.413Z,98420.88
2022-12-11T10:48:03.223Z,98408.25
2022-12-11T10:51:02.641Z,98413.34
2022-12-11T10:53:54.002Z,98411.84
2022-12-11T10:56:40.439Z,98396.28
2022-12-11T10:59:44.105Z,98410.34
2022-12-11T11:02:40.232Z,98397.78
2022-12-11T11:05:29.737Z,98407.31
2022-12-11T11:08:16.526Z,98401.88
2022-12-11T11:11:03.208Z,98395.13
2022-12-11T11:13:49.893Z,98394.78
2022-12-11T11:16:38.856Z,98392.38
2022-12-11T11:19:34.743Z,98392.06
2022-12-11T11:22:21.293Z,98393.91
2022-12-11T11:25:26.134Z,98384.22
2022-12-11T11:28:21.336Z,98379.19
2022-12-11T11:31:12.087Z,98385.09
2022-12-11T11:34:06.692Z,98381.66
2022-12-11T11:36:58.793Z,98369.59
2022-12-11T11:39:47.980Z,98383.75
2022-12-11T11:43:20.020Z,98378.53
2022-12-11T11:46:14.960Z,98373.09
2022-12-11T11:49:12.923Z,98381.47
2022-12-11T11:52:04.082Z,98370.56
2022-12-11T11:55:31.643Z,98365.59
2022-12-11T11:58:28.013Z,98357.78
2022-12-11T12:01:19.894Z,98365.81
2022-12-11T12:04:06.413Z,98369.28
2022-12-11T12:07:07.869Z,98349.31
2022-12-11T12:10:23.942Z,98373.50
2022-12-11T12:13:47.548Z,98363.31
2022-12-11T12:20:04.340Z,98370.66
2022-12-11T12:23:09.475Z,98371.16
2022-12-11T12:26:11.104Z,98373.78
2022-12-11T12:29:22.382Z,98373.59
2022-12-11T12:32:27.195Z,98375.63
2022-12-11T12:35:34.791Z,98358.00
2022-12-11T12:38:36.335Z,98372.50
2022-12-11T12:41:31.918Z,98368.91
2022-12-11T12:44:22.236Z,98364.38
2022-12-11T12:47:14.838Z,98360.31
2022-12-11T12:50:04.490Z,98360.31
2022-12-11T12:52:53.028Z,98352.22
2022-12-11T12:55:40.034Z,98344.72
2022-12-11T12:58:40.709Z,98341.97
2022-12-11T13:01:29.827Z,98344.63
2022-12-11T13:04:55.516Z,98339.53
2022-12-11T13:07:54.031Z,98341.22
2022-12-11T13:10:43.226Z,98336.31
2022-12-11T13:13:35.536Z,98326.06
2022-12-11T13:16:27.117Z,98338.59
2022-12-11T13:19:39.048Z,98334.88
2022-12-11T13:22:28.565Z,98333.03
2022-12-11T13:25:31.458Z,98334.00
2022-12-11T13:28:23.753Z,98337.50
2022-12-11T13:31:16.278Z,98336.19
2022-12-11T13:34:17.269Z,98322.03
2022-12-11T13:37:05.275Z,98344.97
2022-12-11T13:39:52.589Z,98346.63
2022-12-11T13:42:52.652Z,98343.63
2022-12-11T13:45:51.355Z,98332.56
2022-12-11T13:48:47.731Z,98352.09
2022-12-11T13:51:36.995Z,98353.34
2022-12-11T13:54:24.848Z,98356.84
2022-12-11T13:57:21.023Z,98353.38
2022-12-11T14:00:21.377Z,98333.44
2022-12-11T14:03:08.171Z,98348.56
2022-12-11T14:05:54.718Z,98353.63
2022-12-11T14:08:44.131Z,98352.75
2022-12-11T14:11:41.945Z,98347.00
2022-12-11T14:14:40.214Z,98364.19
2022-12-11T14:17:32.984Z,98360.41
2022-12-11T14:20:31.222Z,98362.19
2022-12-11T14:23:21.260Z,98365.50
2022-12-11T14:26:19.663Z,98371.06
2022-12-11T14:29:06.712Z,98376.38
2022-12-11T14:31:54.017Z,98324.44
2022-12-11T14:34:46.916Z,98378.16
2022-12-11T14:37:35.533Z,98356.22
2022-12-11T14:40:28.238Z,98388.19
2022-12-11T14:43:22.207Z,98390.44
2022-12-11T14:46:16.748Z,98354.75
2022-12-11T14:49:09.164Z,98366.63
2022-12-11T14:51:58.301Z,98358.84
2022-12-11T14:54:51.311Z,98361.28
2022-12-11T14:57:41.161Z,98370.28
2022-12-11T15:00:35.892Z,98397.16
2022-12-11T15:03:24.494Z,98395.91
2022-12-11T15:06:30.045Z,98404.53
2022-12-11T15:09:28.778Z,98396.81
2022-12-11T15:12:19.739Z,98345.94
2022-12-11T15:15:07.426Z,98396.31
2022-12-11T15:17:54.021Z,98378.75
2022-12-11T15:20:40.554Z,98367.66
2022-12-11T15:23:28.076Z,98374.25
2022-12-11T15:26:14.913Z,98374.69
2022-12-11T15:29:03.735Z,98403.94
2022-12-11T15:32:02.230Z,98393.84
2022-12-11T15:34:53.469Z,98419.03
2022-12-11T15:37:40.101Z,98387.97
2022-12-11T15:40:26.855Z,98371.72
2022-12-11T15:43:13.399Z,98366.78
2022-12-11T15:46:01.210Z,98413.38
2022-12-11T15:48:48.441Z,98421.72
2022-12-11T15:51:38.398Z,98431.22
2022-12-11T15:54:29.202Z,98378.97
2022-12-11T15:57:19.428Z,98424.50
2022-12-11T16:00:06.729Z,98377.69
2022-12-11T16:02:54.301Z,98414.94
2022-12-11T16:05:41.885Z,98414.44
2022-12-11T16:08:28.213Z,98413.81
2022-12-11T16:11:14.366Z,98417.63
2022-12-11T16:14:04.145Z,98383.84
2022-12-11T16:16:50.551Z,98410.88
2022-12-11T16:19:37.388Z,98430.94
2022-12-11T16:22:23.778Z,98402.66
2022-12-11T16:25:10.566Z,98420.22
2022-12-11T16:27:59.630Z,98412.59
2022-12-11T16:30:46.454Z,98375.41
2022-12-11T16:33:32.926Z,98393.47
2022-12-11T16:36:20.346Z,98400.38
2022-12-11T16:39:06.700Z,98384.28
2022-12-11T16:41:53.364Z,98382.13
2022-12-11T16:44:44.035Z,98390.47
2022-12-11T16:47:31.008Z,98355.28
2022-12-11T16:50:18.302Z,98422.84
2022-12-11T16:53:04.816Z,98409.22
2022-12-11T16:55:51.560Z,98396.22
2022-12-11T16:58:40.429Z,98426.81
2022-12-11T17:01:27.021Z,98429.88
2022-12-11T17:04:13.553Z,98400.91
2022-12-11T17:06:59.898Z,98411.50
2022-12-11T17:09:45.965Z,98426.06
2022-12-11T17:12:32.620Z,98419.97
2022-12-11T17:15:18.878Z,98421.56
2022-12-11T17:18:05.369Z,98409.97
2022-12-11T17:20:51.578Z,98388.34
2022-12-11T17:23:38.795Z,98419.91
2022-12-11T17:26:25.288Z,98417.34
2022-12-11T17:29:12.880Z,98361.28
2022-12-11T17:31:59.350Z,98410.81
2022-12-11T17:34:46.269Z,98364.72
2022-12-11T17:37:32.744Z,98395.28
2022-12-11T17:40:20.718Z,98415.75
2022-12-11T17:43:09.253Z,98408.66
2022-12-11T17:45:55.658Z,98404.78
2022-12-11T17:48:42.540Z,98414.94
2022-12-11T17:51:28.707Z,98373.91
2022-12-11T17:54:15.023Z,98409.97
2022-12-11T17:57:01.644Z,98395.59
2022-12-11T17:59:47.839Z,98401.13
2022-12-11T18:02:34.373Z,98399.53
2022-12-11T18:05:20.690Z,98407.81
2022-12-11T18:08:06.948Z,98367.34
2022-12-11T18:10:54.113Z,98409.88
2022-12-11T18:13:41.839Z,98398.47
2022-12-11T18:16:31.328Z,98377.25
2022-12-11T18:19:17.785Z,98378.66
2022-12-11T18:22:04.504Z,98397.81
2022-12-11T18:24:51.450Z,98404.13
2022-12-11T18:27:38.478Z,98370.94
2022-12-11T18:30:25.676Z,98387.53
2022-12-11T18:33:13.096Z,98396.88
2022-12-11T18:35:59.482Z,98387.69
2022-12-11T18:38:47.888Z,98402.63
2022-12-11T18:41:34.272Z,98342.44
2022-12-11T18:44:22.647Z,98392.44
2022-12-11T18:47:09.110Z,98391.50
2022-12-11T18:49:57.855Z,98399.78
2022-12-11T18:52:45.596Z,98331.50
2022-12-11T18:55:31.940Z,98402.88
2022-12-11T18:58:19.346Z,98398.16
2022-12-11T19:01:11.474Z,98402.00
2022-12-11T19:04:03.549Z,98403.25
2022-12-11T19:06:53.497Z,98412.25
2022-12-11T19:09:43.569Z,98405.72
2022-12-11T19:12:34.676Z,98389.22
2022-12-11T19:15:23.999Z,98397.34
2022-12-11T19:18:11.460Z,98355.44
2022-12-11T19:21:08.132Z,98359.56
2022-12-11T19:23:55.432Z,98379.81
2022-12-11T19:26:42.095Z,98405.38
2022-12-11T19:29:34.268Z,98362.69
2022-12-11T19:32:20.923Z,98405.47
2022-12-11T19:35:07.257Z,98402.81
2022-12-11T19:37:53.820Z,98385.38
2022-12-11T19:40:43.810Z,98411.88
2022-12-11T19:43:30.460Z,98413.41
2022-12-11T19:46:18.215Z,98417.41
2022-12-11T19:49:05.759Z,98413.06
2022-12-11T19:51:52.235Z,98390.28
2022-12-11T19:54:38.905Z,98371.06
2022-12-11T19:57:25.526Z,98410.38
2022-12-11T20:00:12.239Z,98395.28
2022-12-11T20:02:58.707Z,98384.22
2022-12-11T20:05:45.118Z,98414.44
2022-12-11T20:08:49.201Z,98419.34
2022-12-11T20:11:35.601Z,98415.56
2022-12-11T20:14:24.968Z,98389.88
2022-12-11T20:17:14.304Z,98399.16
2022-12-11T20:20:01.410Z,98434.53
2022-12-11T20:22:47.525Z,98407.81
2022-12-11T20:25:34.387Z,98414.94
2022-12-11T20:28:20.648Z,98433.38
2022-12-11T20:31:12.487Z,98276.66
2022-12-11T20:34:03.601Z,98439.66
2022-12-11T20:36:51.899Z,98403.03
2022-12-11T20:39:38.337Z,98406.63
2022-12-11T20:42:24.740Z,98397.56
2022-12-11T20:45:11.370Z,98427.56
2022-12-11T20:47:57.732Z,98419.91
2022-12-11T20:50:44.076Z,98377.44
2022-12-11T20:53:30.776Z,98425.06
2022-12-11T20:56:19.148Z,98368.97
2022-12-11T20:59:05.813Z,98399.09
2022-12-11T21:01:52.352Z,98405.88
2022-12-11T21:04:41.009Z,98414.41
2022-12-11T21:07:28.143Z,98437.28
2022-12-11T21:10:14.745Z,98423.25
2022-12-11T21:13:01.508Z,98426.41
2022-12-11T21:15:52.383Z,98419.72
2022-12-11T21:18:40.018Z,98450.47
2022-12-11T21:21:26.424Z,98392.00
2022-12-11T21:24:21.320Z,98449.78
2022-12-11T21:27:07.710Z,98405.78
2022-12-11T21:29:53.980Z,98378.03
2022-12-11T21:32:41.262Z,98428.44
2022-12-11T21:35:27.904Z,98413.00
2022-12-11T21:38:14.829Z,98425.09
2022-12-11T21:41:22.794Z,98436.97
2022-12-11T21:47:17.585Z,98413.66
2022-12-11T21:50:04.493Z,98419.19
2022-12-11T21:52:50.608Z,98393.88
2022-12-11T21:55:41.258Z,98437.94
2022-12-11T21:58:27.661Z,98417.47
2022-12-11T22:01:32.220Z,98439.72
2022-12-11T22:04:18.916Z,98416.38
2022-12-11T22:07:05.459Z,98428.63
2022-12-11T22:09:51.847Z,98424.78
2022-12-11T22:12:38.210Z,98414.81
2022-12-11T22:15:24.795Z,98447.03
2022-12-11T22:18:12.159Z,98452.59
2022-12-11T22:20:59.189Z,98467.53
2022-12-11T22:23:45.627Z,98416.50
2022-12-11T22:26:32.150Z,98455.88
2022-12-11T22:29:18.338Z,98443.16
2022-12-11T22:32:05.066Z,98458.69
2022-12-11T22:34:51.362Z,98414.84
2022-12-11T22:37:37.678Z,98403.41
2022-12-11T22:40:23.880Z,98449.06
2022-12-11T22:43:10.079Z,98444.66
2022-12-11T22:45:56.644Z,98456.53
2022-12-11T22:48:43.257Z,98380.84
2022-12-11T22:51:29.370Z,98452.88
2022-12-11T22:54:16.355Z,98415.50
2022-12-11T22:57:02.607Z,98402.59
2022-12-11T22:59:49.154Z,98458.47
2022-12-11T23:02:36.710Z,98451.25
2022-12-11T23:05:23.379Z,98448.75
2022-12-11T23:08:09.688Z,98407.69
2022-12-11T23:10:55.892Z,98404.38
2022-12-11T23:13:42.283Z,98426.50
2022-12-11T23:16:28.825Z,98418.81
2022-12-11T23:19:16.906Z,98446.31
2022-12-11T23:22:06.165Z,98450.78
2022-12-11T23:24:52.416Z,98418.34
2022-12-11T23:27:38.821Z,98443.03
2022-12-11T23:30:25.275Z,98402.94
2022-12-11T23:33:11.596Z,98455.53
2022-12-11T23:35:58.868Z,98428.81
2022-12-11T23:38:50.959Z,98457.25
2022-12-11T23:41:39.319Z,98435.13
2022-12-11T23:44:25.556Z,98406.34
2022-12-11T23:47:11.885Z,98449.97
2022-12-11T23:49:58.353Z,98431.88
2022-12-11T23:52:45.288Z,98433.59
2022-12-11T23:55:31.535Z,98420.13
2022-12-11T23:58:17.839Z,98397.81
